Mayking, Kentucky
Current Conditions -  °F | °C
As of 7:15 PM on Sunday 25 Jan 2015 (Local Time) from KLNP Reporting Station
Overcast Overcast  
Wind Chill: 43°   Ceiling: 8500
Heat Index: 43°   Visibility: 10mi
Dew Point: 30°   Wind: 3mph
Humidity: 61%   Direction: 220°SW
Pressure: 29.71"   Gusts: NA
Location:  37.13°N, 82.77°W
Report Text: KLNP 260015Z AUTO 22003KT 10SM SCT075 OVC085 06/M01 A2971 RMK AO2
Loading
Personal Weather Stations






























Interactive Weather Map New forecast layout! Learn more

10-Day Weather Forecast

Advertisements
Track Severe Weather on mobile